Time;durP1;ratioP1;P1;durP2;ratioP2;P2;SDS_P1;SDS_P2;PMS_P1;PMS_P2;Temp;Humidity;BMP_temperature;BMP_pressure;BME280_temperature;BME280_humidity;BME280_pressure;Samples;Min_cycle;Max_cycle;Signal;HPM_P1;HPM_P2
2021/01/20 00:00:36;;;;;;;11.00;6.87;;;8.80;99.90;;;;;;5025856;28;20215;-79
2021/01/20 00:03:03;;;;;;;10.97;6.67;;;8.90;99.90;;;;;;5026380;28;20206;-83
2021/01/20 00:05:30;;;;;;;13.13;6.40;;;8.90;99.90;;;;;;5025965;28;20209;-80
2021/01/20 00:07:56;;;;;;;13.03;6.87;;;8.90;99.90;;;;;;5026504;28;20210;-79
2021/01/20 00:10:22;;;;;;;9.47;6.60;;;8.90;99.90;;;;;;5025671;28;20210;-80
2021/01/20 00:12:49;;;;;;;10.73;6.30;;;8.90;99.90;;;;;;5025546;28;20233;-79
2021/01/20 00:15:19;;;;;;;10.50;6.80;;;8.90;99.90;;;;;;5026492;28;20191;-80
2021/01/20 00:17:45;;;;;;;11.10;6.33;;;8.90;99.90;;;;;;5026117;28;20230;-80
2021/01/20 00:20:13;;;;;;;12.07;6.90;;;8.90;99.90;;;;;;5026807;28;20195;-81
2021/01/20 00:22:41;;;;;;;11.90;6.20;;;8.90;99.90;;;;;;5026529;28;20253;-80
2021/01/20 00:25:09;;;;;;;13.33;7.33;;;8.90;99.90;;;;;;5026945;28;20508;-81
2021/01/20 00:27:35;;;;;;;8.93;6.37;;;8.90;99.90;;;;;;5024876;28;20630;-80
2021/01/20 00:30:02;;;;;;;11.93;7.30;;;8.90;99.90;;;;;;5026665;28;20740;-80
2021/01/20 00:32:28;;;;;;;12.60;6.33;;;8.80;99.90;;;;;;5026754;28;20289;-82
2021/01/20 00:34:54;;;;;;;16.93;8.60;;;8.80;99.90;;;;;;5026949;28;20202;-82
2021/01/20 00:37:22;;;;;;;14.27;6.80;;;8.80;99.90;;;;;;5025694;28;20198;-79
2021/01/20 00:39:49;;;;;;;15.70;7.50;;;8.90;99.90;;;;;;5025113;28;20209;-79
2021/01/20 00:42:16;;;;;;;15.17;7.50;;;8.90;99.90;;;;;;5025802;28;20191;-77
2021/01/20 00:44:43;;;;;;;13.23;7.07;;;8.90;99.90;;;;;;5025861;28;20210;-81
2021/01/20 00:47:09;;;;;;;11.83;6.73;;;8.90;99.90;;;;;;5025863;28;20206;-82
2021/01/20 00:49:36;;;;;;;13.43;7.67;;;8.90;99.90;;;;;;5025829;28;20203;-79
2021/01/20 00:52:02;;;;;;;13.07;7.07;;;8.90;99.90;;;;;;5025663;28;20229;-80
2021/01/20 00:54:28;;;;;;;14.07;7.70;;;8.90;99.90;;;;;;5025447;28;20497;-80
2021/01/20 00:56:55;;;;;;;8.77;6.40;;;8.90;99.90;;;;;;5025876;28;20270;-79
2021/01/20 00:59:22;;;;;;;11.10;7.97;;;8.90;99.90;;;;;;5025628;28;20199;-82
2021/01/20 01:01:48;;;;;;;10.87;7.10;;;8.90;99.90;;;;;;5025821;28;20205;-80
2021/01/20 01:04:15;;;;;;;13.83;7.67;;;8.80;99.90;;;;;;5026131;28;20218;-81
2021/01/20 01:06:41;;;;;;;13.70;8.30;;;8.80;99.90;;;;;;5025534;28;20512;-81
2021/01/20 01:09:07;;;;;;;13.30;8.00;;;8.90;99.90;;;;;;5024261;28;20222;-79
2021/01/20 01:11:34;;;;;;;11.70;7.47;;;8.90;99.90;;;;;;5025107;28;20235;-79
2021/01/20 01:14:01;;;;;;;12.23;7.77;;;8.90;99.90;;;;;;5025323;28;20238;-81
2021/01/20 01:16:27;;;;;;;12.63;6.87;;;8.90;99.90;;;;;;5026104;28;20195;-80
2021/01/20 01:18:54;;;;;;;10.57;7.93;;;8.80;99.90;;;;;;5025622;28;20218;-82
2021/01/20 01:21:20;;;;;;;10.90;8.10;;;8.90;99.90;;;;;;5025417;28;20205;-79
2021/01/20 01:23:46;;;;;;;11.47;7.60;;;8.80;99.90;;;;;;5024643;28;20650;-82
2021/01/20 01:26:13;;;;;;;12.57;7.70;;;8.80;99.90;;;;;;5025115;28;20218;-80
2021/01/20 01:28:39;;;;;;;19.17;8.37;;;8.80;99.90;;;;;;5025477;28;20560;-80
2021/01/20 01:31:06;;;;;;;11.33;7.90;;;8.90;99.90;;;;;;5025783;28;20213;-82
2021/01/20 01:33:33;;;;;;;13.57;8.30;;;8.90;99.90;;;;;;5024698;28;20253;-82
2021/01/20 01:35:59;;;;;;;12.70;8.73;;;8.90;99.90;;;;;;5022843;28;20224;-82
2021/01/20 01:38:25;;;;;;;14.40;8.73;;;8.90;99.90;;;;;;5023844;28;20208;-80
2021/01/20 01:40:52;;;;;;;12.40;8.67;;;8.80;99.90;;;;;;5027289;28;20222;-79
2021/01/20 01:43:18;;;;;;;13.70;9.17;;;8.90;99.90;;;;;;5028871;28;20958;-81
2021/01/20 01:45:45;;;;;;;14.57;8.20;;;8.90;99.90;;;;;;5028938;28;20841;-80
2021/01/20 01:48:12;;;;;;;15.30;9.60;;;8.90;99.90;;;;;;5028803;28;20202;-80
2021/01/20 01:50:38;;;;;;;12.83;8.63;;;8.90;99.90;;;;;;5028236;28;20210;-80
2021/01/20 01:53:05;;;;;;;12.83;8.67;;;8.90;99.90;;;;;;5028064;28;20245;-79
2021/01/20 01:55:32;;;;;;;12.23;8.23;;;8.90;99.90;;;;;;5027029;28;20191;-79
2021/01/20 01:57:58;;;;;;;13.60;8.97;;;8.90;99.90;;;;;;5027949;28;20203;-80
2021/01/20 02:00:24;;;;;;;13.40;8.97;;;8.90;99.90;;;;;;5028041;28;20206;-79
2021/01/20 02:02:51;;;;;;;14.07;8.93;;;8.80;99.90;;;;;;5026954;28;20205;-77
2021/01/20 02:05:18;;;;;;;12.80;8.73;;;8.80;99.90;;;;;;5027778;28;20257;-79
2021/01/20 02:07:46;;;;;;;13.93;9.60;;;8.90;99.90;;;;;;5027899;28;20225;-80
2021/01/20 02:10:13;;;;;;;12.73;8.37;;;8.90;99.90;;;;;;5027733;28;20273;-80
2021/01/20 02:12:48;;;;;;;14.63;8.60;;;8.80;99.90;;;;;;5027628;28;20214;-79
2021/01/20 02:15:21;;;;;;;12.40;8.80;;;8.90;99.90;;;;;;5008037;28;20210;-79
2021/01/20 02:17:53;;;;;;;14.77;9.03;;;8.90;99.90;;;;;;5008429;28;20640;-78
2021/01/20 02:21:05;;;;;;;10.80;7.97;;;8.90;99.90;;;;;;5008437;28;20295;-81
2021/01/20 02:23:32;;;;;;;11.37;8.33;;;8.90;99.90;;;;;;5007782;28;20281;-82
2021/01/20 02:26:21;;;;;;;13.73;8.43;;;8.90;99.90;;;;;;5008309;28;20208;-80
2021/01/20 02:29:02;;;;;;;14.37;9.43;;;9.00;99.90;;;;;;5008858;28;20206;-80
2021/01/20 02:31:31;;;;;;;14.83;8.73;;;8.90;99.90;;;;;;5007940;28;20223;-81
2021/01/20 02:34:02;;;;;;;13.60;9.87;;;8.90;99.90;;;;;;5007822;28;20207;-79
2021/01/20 02:36:30;;;;;;;13.67;9.30;;;8.90;99.90;;;;;;5007301;28;20195;-79
2021/01/20 02:38:57;;;;;;;14.77;9.17;;;9.00;99.90;;;;;;5007999;28;20246;-79
2021/01/20 02:41:25;;;;;;;14.97;10.97;;;9.00;99.90;;;;;;5007986;28;20199;-80
2021/01/20 02:43:52;;;;;;;12.27;8.50;;;9.00;99.90;;;;;;5007502;28;20727;-80
2021/01/20 02:46:19;;;;;;;10.77;8.50;;;9.00;99.90;;;;;;5007891;28;20208;-80
2021/01/20 02:48:47;;;;;;;13.63;9.47;;;9.10;99.90;;;;;;5008227;28;20211;-79
2021/01/20 02:51:20;;;;;;;13.10;9.17;;;9.10;99.90;;;;;;5006036;28;20200;-83
2021/01/20 02:53:47;;;;;;;12.93;8.93;;;9.10;99.90;;;;;;5007005;28;20207;-79
2021/01/20 02:56:16;;;;;;;13.67;8.53;;;9.10;99.90;;;;;;5006997;28;20210;-82
2021/01/20 02:58:46;;;;;;;14.73;9.23;;;9.10;99.90;;;;;;5005409;28;20326;-78
2021/01/20 03:01:15;;;;;;;12.50;9.20;;;9.10;99.90;;;;;;5005667;28;20600;-80
2021/01/20 03:03:45;;;;;;;10.40;8.27;;;9.20;99.90;;;;;;5004649;28;20207;-81
2021/01/20 03:06:12;;;;;;;11.87;8.60;;;9.10;99.90;;;;;;5005095;28;20214;-79
2021/01/20 03:08:40;;;;;;;13.13;9.40;;;9.10;99.90;;;;;;5004650;28;20211;-78
2021/01/20 03:11:06;;;;;;;12.47;9.07;;;9.20;99.90;;;;;;5005102;28;20211;-80
2021/01/20 03:13:36;;;;;;;12.93;8.43;;;9.20;99.90;;;;;;5013706;28;20237;-79
2021/01/20 03:16:03;;;;;;;17.13;9.60;;;9.20;99.90;;;;;;5023477;28;20285;-81
2021/01/20 03:18:29;;;;;;;14.13;9.10;;;9.20;99.90;;;;;;5005735;28;20239;-78
2021/01/20 03:20:56;;;;;;;14.23;9.73;;;9.20;99.90;;;;;;5013393;28;20237;-84
2021/01/20 03:23:23;;;;;;;11.60;9.63;;;9.30;99.90;;;;;;5026973;28;20202;-79
2021/01/20 03:25:50;;;;;;;13.23;9.10;;;9.30;99.90;;;;;;5025412;28;20195;-78
2021/01/20 03:28:16;;;;;;;14.50;8.60;;;9.30;99.90;;;;;;5025792;28;20217;-78
2021/01/20 03:30:43;;;;;;;12.80;9.33;;;9.40;99.90;;;;;;5026030;28;20667;-80
2021/01/20 03:33:09;;;;;;;15.83;9.33;;;9.30;99.90;;;;;;5025549;28;20249;-79
2021/01/20 03:35:36;;;;;;;16.07;9.93;;;9.40;99.90;;;;;;5025616;28;20203;-80
2021/01/20 03:38:03;;;;;;;15.27;9.47;;;9.30;99.90;;;;;;5026511;28;20210;-79
2021/01/20 03:40:30;;;;;;;16.77;9.70;;;9.30;99.90;;;;;;5025091;28;20206;-78
2021/01/20 03:42:56;;;;;;;15.67;9.33;;;9.30;99.90;;;;;;5026092;28;20209;-78
2021/01/20 03:45:22;;;;;;;14.43;10.00;;;9.40;99.90;;;;;;5025856;28;20203;-79
2021/01/20 03:47:49;;;;;;;11.80;9.00;;;9.30;99.90;;;;;;5022938;28;20195;-79
2021/01/20 03:50:15;;;;;;;11.43;9.23;;;9.30;99.90;;;;;;5023954;28;20203;-80
2021/01/20 03:52:41;;;;;;;12.40;9.13;;;9.30;99.90;;;;;;5024242;28;20226;-81
2021/01/20 03:55:09;;;;;;;12.23;9.17;;;9.40;99.90;;;;;;5024729;28;20249;-80
2021/01/20 03:57:36;;;;;;;14.27;9.53;;;9.40;99.90;;;;;;5026369;28;20203;-78
2021/01/20 04:00:04;;;;;;;14.17;9.83;;;9.40;99.90;;;;;;5027656;28;20946;-80
2021/01/20 04:02:31;;;;;;;13.37;9.67;;;9.40;99.90;;;;;;5025648;28;20194;-79
2021/01/20 04:04:57;;;;;;;16.27;9.27;;;9.40;99.90;;;;;;5027340;28;20211;-79
2021/01/20 04:07:23;;;;;;;12.90;9.00;;;9.40;99.90;;;;;;5026239;28;20242;-79
2021/01/20 04:09:49;;;;;;;15.67;10.10;;;9.40;99.90;;;;;;5025089;28;20202;-79
2021/01/20 04:12:16;;;;;;;14.87;8.80;;;9.30;99.90;;;;;;5025298;28;20569;-78
2021/01/20 04:14:43;;;;;;;18.10;9.63;;;9.30;99.90;;;;;;5026217;28;20234;-81
2021/01/20 04:17:09;;;;;;;13.67;9.60;;;9.30;99.90;;;;;;5026598;28;20206;-80
2021/01/20 04:19:35;;;;;;;14.67;9.40;;;9.30;99.90;;;;;;5026846;28;20264;-80
2021/01/20 04:22:02;;;;;;;17.20;10.27;;;9.30;99.90;;;;;;5026339;28;20202;-78
2021/01/20 04:24:28;;;;;;;14.17;9.20;;;9.40;99.90;;;;;;5026652;28;20202;-80
2021/01/20 04:26:54;;;;;;;13.70;8.67;;;9.40;99.90;;;;;;5025862;28;20262;-79
2021/01/20 04:29:21;;;;;;;11.43;8.60;;;9.30;99.90;;;;;;5025801;28;20514;-81
2021/01/20 04:31:48;;;;;;;13.63;8.70;;;9.30;99.90;;;;;;5026442;28;20219;-79
2021/01/20 04:34:14;;;;;;;13.73;9.20;;;9.40;99.90;;;;;;5025425;28;20207;-82
2021/01/20 04:36:40;;;;;;;13.90;8.77;;;9.30;99.90;;;;;;5026173;28;20293;-79
2021/01/20 04:39:07;;;;;;;12.40;8.20;;;9.30;99.90;;;;;;5026418;28;20211;-83
2021/01/20 04:41:33;;;;;;;12.27;8.30;;;9.30;99.90;;;;;;5025312;28;20241;-79
2021/01/20 04:44:00;;;;;;;9.63;8.00;;;9.40;99.90;;;;;;5025178;28;20210;-80
2021/01/20 04:46:28;;;;;;;11.60;8.90;;;9.40;99.90;;;;;;5027943;28;20253;-83
2021/01/20 04:48:56;;;;;;;12.17;8.97;;;9.40;99.90;;;;;;5026781;28;20198;-79
2021/01/20 04:51:25;;;;;;;14.80;8.83;;;9.40;99.90;;;;;;5025126;28;20209;-79
2021/01/20 04:53:54;;;;;;;10.00;8.00;;;9.40;99.90;;;;;;5024830;28;20202;-79
2021/01/20 04:56:21;;;;;;;12.23;8.47;;;9.40;99.90;;;;;;5022646;28;20203;-82
2021/01/20 04:58:51;;;;;;;13.03;8.03;;;9.40;99.90;;;;;;5024864;28;20202;-85
2021/01/20 05:01:19;;;;;;;10.43;7.97;;;9.40;99.90;;;;;;5027479;28;20206;-80
2021/01/20 05:03:46;;;;;;;13.83;9.57;;;9.40;99.90;;;;;;5026831;28;20290;-79
2021/01/20 05:06:14;;;;;;;10.50;8.90;;;9.40;99.90;;;;;;5025918;28;20211;-80
2021/01/20 05:08:40;;;;;;;11.43;7.90;;;9.30;99.90;;;;;;5025910;28;20253;-79
2021/01/20 05:11:06;;;;;;;12.67;7.70;;;9.30;99.90;;;;;;5024911;28;20225;-80
2021/01/20 05:13:33;;;;;;;9.23;7.93;;;9.40;99.90;;;;;;5017589;28;20607;-80
2021/01/20 05:15:59;;;;;;;9.63;8.00;;;9.40;99.90;;;;;;5005983;28;20257;-85
2021/01/20 05:18:26;;;;;;;9.23;7.73;;;9.40;99.90;;;;;;5007085;28;20218;-82
2021/01/20 05:20:52;;;;;;;10.33;7.73;;;9.40;99.90;;;;;;5005300;28;20203;-81
2021/01/20 05:23:26;;;;;;;11.60;7.97;;;9.40;99.90;;;;;;5005904;28;20195;-82
2021/01/20 05:25:52;;;;;;;13.60;8.47;;;9.40;99.90;;;;;;5006800;28;20863;-82
2021/01/20 05:28:22;;;;;;;15.27;8.10;;;9.40;99.90;;;;;;5005908;28;20203;-81
2021/01/20 05:30:50;;;;;;;11.10;7.83;;;9.30;99.90;;;;;;5004522;28;20682;-80
2021/01/20 05:33:18;;;;;;;14.87;8.73;;;9.30;99.90;;;;;;5006008;28;20238;-78
2021/01/20 05:35:46;;;;;;;11.13;7.90;;;9.30;99.90;;;;;;5007251;28;20660;-79
2021/01/20 05:38:14;;;;;;;10.47;8.03;;;9.30;99.90;;;;;;5005700;28;20215;-79
2021/01/20 05:40:42;;;;;;;10.97;7.87;;;9.30;99.90;;;;;;5005999;28;20199;-80
2021/01/20 05:43:08;;;;;;;12.83;8.60;;;9.30;99.90;;;;;;5006550;28;20214;-81
2021/01/20 05:45:45;;;;;;;10.53;7.83;;;9.20;99.90;;;;;;5005077;28;20635;-80
2021/01/20 05:48:12;;;;;;;11.60;8.07;;;9.20;99.90;;;;;;5005904;28;20194;-81
2021/01/20 05:50:55;;;;;;;12.90;7.97;;;9.20;99.90;;;;;;5006697;28;20258;-80
2021/01/20 05:53:22;;;;;;;12.37;8.63;;;9.20;99.90;;;;;;5006634;28;20215;-80
2021/01/20 05:56:02;;;;;;;12.77;8.90;;;9.20;99.90;;;;;;5005944;28;20211;-79
2021/01/20 05:58:39;;;;;;;11.63;7.67;;;9.20;99.90;;;;;;5006474;28;20261;-80
2021/01/20 06:01:06;;;;;;;11.27;8.10;;;9.10;99.90;;;;;;5006176;28;20310;-81
2021/01/20 06:03:35;;;;;;;10.03;8.10;;;9.10;99.90;;;;;;5005790;28;20442;-79
2021/01/20 06:06:02;;;;;;;14.77;8.70;;;9.10;99.90;;;;;;5005951;28;20211;-81
2021/01/20 06:08:31;;;;;;;13.03;8.47;;;9.10;99.90;;;;;;5005606;28;20203;-80
2021/01/20 06:10:57;;;;;;;10.70;8.30;;;9.10;99.90;;;;;;5004853;28;20199;-80
2021/01/20 06:13:25;;;;;;;13.03;8.50;;;9.10;99.90;;;;;;5010870;28;20280;-80
2021/01/20 06:15:56;;;;;;;12.97;8.27;;;9.10;99.90;;;;;;5024831;28;20214;-80
2021/01/20 06:18:24;;;;;;;10.30;7.53;;;9.10;99.90;;;;;;5024908;28;20227;-80
2021/01/20 06:20:52;;;;;;;13.13;8.20;;;9.10;99.90;;;;;;5025070;28;20301;-80
2021/01/20 06:23:23;;;;;;;9.87;7.40;;;9.10;99.90;;;;;;5022209;28;20290;-83
2021/01/20 06:26:00;;;;;;;12.53;8.20;;;9.10;99.90;;;;;;5023894;28;20230;-84
2021/01/20 06:28:27;;;;;;;13.33;7.93;;;9.20;99.90;;;;;;5026868;28;20520;-81
2021/01/20 06:30:55;;;;;;;10.80;6.77;;;9.20;99.90;;;;;;5027360;28;20646;-81
2021/01/20 06:33:23;;;;;;;13.17;7.50;;;9.20;99.90;;;;;;5027668;28;20226;-79
2021/01/20 06:35:51;;;;;;;11.07;6.87;;;9.30;99.90;;;;;;5026689;28;20203;-79
2021/01/20 06:38:37;;;;;;;11.50;7.53;;;9.20;99.90;;;;;;5027333;28;20607;-78
2021/01/20 06:41:09;;;;;;;12.67;7.27;;;9.20;99.90;;;;;;5027286;28;20206;-80
2021/01/20 06:43:47;;;;;;;10.17;6.90;;;9.30;99.90;;;;;;5026843;28;20222;-78
2021/01/20 06:46:26;;;;;;;9.17;6.80;;;9.30;99.90;;;;;;5026503;28;20199;-79
2021/01/20 06:49:10;;;;;;;12.00;6.93;;;9.30;99.90;;;;;;5026441;28;20210;-79
2021/01/20 06:51:37;;;;;;;9.20;6.90;;;9.40;99.90;;;;;;5025958;28;20230;-79
2021/01/20 06:54:33;;;;;;;10.40;7.60;;;9.40;99.90;;;;;;5027196;28;20269;-80
2021/01/20 06:56:59;;;;;;;13.83;6.90;;;9.40;99.90;;;;;;5026909;28;20199;-80
2021/01/20 06:59:29;;;;;;;10.43;7.30;;;9.40;99.90;;;;;;5026944;28;20595;-79
2021/01/20 07:02:12;;;;;;;10.03;6.33;;;9.40;99.90;;;;;;5026824;28;20496;-81
2021/01/20 07:04:57;;;;;;;8.80;6.33;;;9.40;99.90;;;;;;5026495;28;20206;-80
2021/01/20 07:07:54;;;;;;;8.80;6.40;;;9.40;99.90;;;;;;5028026;28;20194;-79
2021/01/20 07:10:23;;;;;;;9.03;7.20;;;9.40;99.90;;;;;;4993331;28;20213;-79
2021/01/20 07:15:18;;;;;;;8.10;6.20;;;9.40;99.90;;;;;;4985936;28;20228;-80
2021/01/20 07:17:45;;;;;;;8.17;5.90;;;9.40;99.90;;;;;;4985748;28;20216;-80
2021/01/20 07:20:13;;;;;;;9.93;6.30;;;9.40;99.90;;;;;;4986732;28;20204;-81
2021/01/20 07:22:41;;;;;;;8.97;5.80;;;9.40;99.90;;;;;;4987219;28;20208;-80
2021/01/20 07:25:09;;;;;;;8.63;5.73;;;9.40;99.90;;;;;;4987068;28;20231;-81
2021/01/20 07:27:48;;;;;;;9.77;6.03;;;9.40;99.90;;;;;;4987857;28;20243;-81
2021/01/20 07:30:15;;;;;;;7.60;5.67;;;9.40;99.90;;;;;;4988170;28;20608;-80
2021/01/20 07:32:43;;;;;;;8.70;5.67;;;9.40;99.90;;;;;;4987304;28;20243;-81
2021/01/20 07:35:16;;;;;;;6.37;5.00;;;9.40;99.90;;;;;;4989208;28;20223;-81
2021/01/20 07:37:44;;;;;;;8.93;5.73;;;9.50;99.90;;;;;;4988442;28;20267;-81
2021/01/20 07:40:11;;;;;;;9.17;5.27;;;9.40;99.90;;;;;;4986974;28;20717;-81
2021/01/20 07:42:40;;;;;;;8.73;6.10;;;9.50;99.90;;;;;;4986994;28;20196;-82
2021/01/20 07:59:28;;;;;;;6.20;4.47;;;9.50;99.90;;;;;;4698570;29;20216;-81
2021/01/20 08:02:06;;;;;;;6.87;4.27;;;9.50;99.90;;;;;;4882137;29;20510;-83
2021/01/20 08:04:32;;;;;;;5.27;4.10;;;9.50;99.90;;;;;;4889376;29;20211;-82
2021/01/20 08:06:58;;;;;;;9.27;5.57;;;9.60;99.90;;;;;;4905855;29;20206;-83
2021/01/20 08:09:35;;;;;;;5.70;4.23;;;9.60;99.90;;;;;;4906193;29;20210;-81
2021/01/20 08:12:04;;;;;;;5.10;4.23;;;9.60;99.90;;;;;;4905751;29;20234;-79
2021/01/20 08:14:32;;;;;;;6.77;4.30;;;9.70;99.90;;;;;;4904890;29;20249;-83
2021/01/20 08:16:59;;;;;;;7.27;4.60;;;9.70;99.90;;;;;;4908751;29;20250;-81
2021/01/20 08:19:25;;;;;;;6.60;4.10;;;9.70;99.90;;;;;;4908678;29;20233;-82
2021/01/20 08:21:52;;;;;;;5.50;4.20;;;9.80;99.90;;;;;;4907397;29;20217;-79
2021/01/20 08:24:22;;;;;;;5.50;3.80;;;9.80;99.90;;;;;;4907421;29;20203;-79
2021/01/20 08:26:55;;;;;;;4.40;3.30;;;9.80;99.90;;;;;;4907153;29;20247;-79
2021/01/20 08:29:22;;;;;;;7.33;3.83;;;9.80;99.90;;;;;;4907968;29;20194;-84
2021/01/20 08:32:06;;;;;;;4.67;3.40;;;9.80;99.90;;;;;;4907283;29;20210;-83
2021/01/20 08:34:35;;;;;;;5.73;3.53;;;9.80;99.90;;;;;;4923944;29;20202;-81
2021/01/20 08:37:04;;;;;;;6.33;4.00;;;9.80;99.90;;;;;;4927609;29;20216;-82
2021/01/20 08:39:31;;;;;;;6.03;3.60;;;9.80;99.90;;;;;;4928136;29;20224;-81
2021/01/20 08:42:27;;;;;;;4.73;3.77;;;9.80;99.90;;;;;;4927220;29;20245;-81
2021/01/20 08:45:08;;;;;;;5.43;3.53;;;9.80;99.90;;;;;;4927879;29;20198;-81
2021/01/20 08:47:42;;;;;;;5.50;3.30;;;9.90;99.90;;;;;;4947711;28;20706;-81
2021/01/20 08:50:09;;;;;;;5.83;3.60;;;9.80;99.90;;;;;;4948881;29;20209;-85
2021/01/20 08:52:50;;;;;;;4.93;3.90;;;9.90;99.90;;;;;;4947523;29;20233;-81
2021/01/20 08:55:27;;;;;;;7.87;3.93;;;9.80;99.90;;;;;;4946581;29;20244;-81
2021/01/20 08:58:28;;;;;;;4.43;3.50;;;9.80;99.90;;;;;;4945578;29;20581;-81
2021/01/20 09:00:57;;;;;;;4.27;3.50;;;9.80;99.90;;;;;;4946718;28;20571;-79
2021/01/20 09:03:25;;;;;;;6.20;3.50;;;9.80;99.90;;;;;;4946132;29;20205;-80
2021/01/20 09:05:53;;;;;;;5.50;3.27;;;9.80;99.90;;;;;;4946007;29;20212;-81
2021/01/20 09:08:20;;;;;;;5.10;3.33;;;9.90;99.90;;;;;;4946382;28;20244;-80
2021/01/20 09:10:48;;;;;;;4.77;3.10;;;9.90;99.90;;;;;;4945020;29;20606;-80
2021/01/20 09:13:17;;;;;;;3.80;3.27;;;10.00;99.90;;;;;;4942004;29;20241;-83
2021/01/20 09:15:45;;;;;;;5.47;3.23;;;10.00;99.90;;;;;;4926957;29;20209;-81
2021/01/20 09:18:12;;;;;;;5.03;3.57;;;9.90;99.90;;;;;;4926076;29;20393;-78
2021/01/20 09:20:39;;;;;;;5.20;3.70;;;10.00;99.90;;;;;;4934862;29;20265;-81
2021/01/20 09:23:06;;;;;;;4.87;3.30;;;10.00;99.90;;;;;;4948636;29;20197;-83
2021/01/20 09:25:33;;;;;;;6.00;3.27;;;10.00;99.90;;;;;;4948444;29;20206;-83
2021/01/20 09:28:00;;;;;;;5.30;3.10;;;9.90;99.90;;;;;;4946417;29;20209;-82
2021/01/20 09:30:26;;;;;;;6.47;3.20;;;10.00;99.90;;;;;;4945433;29;20209;-80
2021/01/20 09:32:53;;;;;;;3.87;3.13;;;9.90;99.90;;;;;;4944401;29;20240;-82
2021/01/20 09:35:19;;;;;;;6.57;3.80;;;9.90;99.90;;;;;;4946643;29;20201;-81
2021/01/20 09:37:48;;;;;;;4.90;3.10;;;9.90;99.90;;;;;;4946601;29;20208;-81
2021/01/20 09:40:16;;;;;;;4.13;3.03;;;9.90;99.90;;;;;;4956261;28;20508;-82
2021/01/20 09:42:44;;;;;;;6.47;3.40;;;9.90;99.90;;;;;;4965319;28;20264;-82
2021/01/20 09:45:12;;;;;;;6.20;4.30;;;10.00;99.90;;;;;;4963408;28;20201;-82
2021/01/20 09:47:40;;;;;;;4.23;2.87;;;10.00;99.90;;;;;;4963295;28;20248;-81
2021/01/20 09:50:09;;;;;;;7.00;4.20;;;10.00;99.90;;;;;;4973694;28;20231;-81
2021/01/20 09:52:35;;;;;;;3.97;3.17;;;10.00;99.90;;;;;;4985001;28;20238;-81
2021/01/20 09:55:04;;;;;;;8.73;3.37;;;10.00;99.90;;;;;;4983116;28;20205;-83
2021/01/20 09:57:31;;;;;;;4.90;3.20;;;9.90;99.90;;;;;;4969842;28;20217;-80
2021/01/20 09:59:57;;;;;;;5.97;3.47;;;9.90;99.90;;;;;;4965161;28;20208;-80
2021/01/20 10:02:24;;;;;;;4.20;3.20;;;9.90;99.90;;;;;;4969804;28;20624;-82
2021/01/20 10:04:53;;;;;;;5.43;3.20;;;9.90;99.90;;;;;;4969184;28;20212;-79
2021/01/20 10:07:20;;;;;;;7.23;3.83;;;9.90;99.90;;;;;;4968868;28;20923;-82
2021/01/20 10:09:46;;;;;;;4.33;2.80;;;9.90;99.90;;;;;;4968543;28;20241;-81
2021/01/20 10:12:14;;;;;;;4.50;3.10;;;9.90;99.90;;;;;;4969386;28;20244;-79
2021/01/20 10:14:42;;;;;;;3.93;3.10;;;9.90;99.90;;;;;;4999329;28;20343;-79
2021/01/20 10:17:09;;;;;;;5.63;3.00;;;9.90;99.90;;;;;;5009526;28;20191;-80
2021/01/20 10:19:35;;;;;;;4.07;2.70;;;10.00;99.90;;;;;;5009394;28;20223;-81
2021/01/20 10:22:02;;;;;;;6.47;3.83;;;9.90;99.90;;;;;;5008432;28;20199;-81
2021/01/20 10:24:28;;;;;;;3.67;2.60;;;9.90;99.90;;;;;;5009117;28;20274;-81
2021/01/20 10:26:55;;;;;;;4.67;3.10;;;10.00;99.90;;;;;;5009294;28;20517;-83
2021/01/20 10:29:22;;;;;;;5.83;3.43;;;10.00;99.90;;;;;;5007395;28;20210;-80
2021/01/20 10:31:50;;;;;;;3.67;2.97;;;10.00;99.90;;;;;;5007670;28;20871;-81
2021/01/20 10:34:16;;;;;;;5.37;2.83;;;10.10;99.90;;;;;;5007896;28;20210;-79
2021/01/20 10:36:42;;;;;;;5.93;3.37;;;10.10;99.90;;;;;;5008375;28;20207;-79
2021/01/20 10:39:10;;;;;;;5.90;3.40;;;10.10;99.90;;;;;;5007314;28;20204;-80
2021/01/20 10:41:37;;;;;;;4.20;2.90;;;10.10;99.90;;;;;;5007273;28;20199;-81
2021/01/20 10:44:05;;;;;;;4.80;3.20;;;10.10;99.90;;;;;;5006695;28;20204;-78
2021/01/20 10:46:32;;;;;;;4.83;2.93;;;10.20;99.90;;;;;;4989385;28;20216;-81
2021/01/20 10:49:00;;;;;;;4.30;3.17;;;10.20;99.90;;;;;;4987697;28;20208;-79
2021/01/20 10:51:29;;;;;;;5.53;2.63;;;10.20;99.90;;;;;;4993038;28;20372;-79
2021/01/20 10:53:55;;;;;;;6.13;3.50;;;10.20;99.90;;;;;;4987388;28;20897;-79
2021/01/20 10:56:21;;;;;;;3.43;2.83;;;10.20;99.90;;;;;;4987559;28;20212;-81
2021/01/20 10:58:48;;;;;;;4.40;2.73;;;10.20;99.90;;;;;;4987217;28;20310;-79
2021/01/20 11:01:14;;;;;;;5.90;3.00;;;10.20;99.90;;;;;;4987940;28;20212;-80
2021/01/20 11:03:44;;;;;;;5.03;3.03;;;10.10;99.90;;;;;;4986685;28;20200;-80
2021/01/20 11:06:10;;;;;;;5.93;3.63;;;10.20;99.90;;;;;;4987331;28;20239;-80
2021/01/20 11:08:36;;;;;;;3.23;2.33;;;10.20;99.90;;;;;;4987145;28;20270;-78
2021/01/20 11:11:03;;;;;;;4.77;2.67;;;10.20;99.90;;;;;;4984608;28;20652;-81
2021/01/20 11:13:29;;;;;;;5.03;2.57;;;10.30;99.90;;;;;;4991629;28;20266;-82
2021/01/20 11:15:56;;;;;;;4.83;2.83;;;10.20;99.90;;;;;;5007745;28;20263;-78
2021/01/20 11:18:22;;;;;;;3.83;2.40;;;10.30;99.90;;;;;;5007906;28;20223;-80
2021/01/20 11:20:50;;;;;;;3.27;2.60;;;10.30;99.90;;;;;;5007383;28;20207;-79
2021/01/20 11:23:17;;;;;;;4.40;2.60;;;10.40;99.90;;;;;;5006801;28;20258;-78
2021/01/20 11:25:45;;;;;;;4.90;2.33;;;10.40;99.90;;;;;;5005942;28;20209;-80
2021/01/20 11:28:12;;;;;;;6.73;2.50;;;10.40;99.90;;;;;;5007275;28;20199;-78
2021/01/20 11:30:38;;;;;;;3.90;2.93;;;10.50;99.90;;;;;;5006516;28;20215;-82
2021/01/20 11:33:05;;;;;;;4.77;3.00;;;10.50;99.90;;;;;;5006194;28;20223;-79
2021/01/20 11:35:31;;;;;;;4.40;2.80;;;10.50;99.90;;;;;;5007393;28;20600;-81
2021/01/20 11:38:02;;;;;;;3.40;2.57;;;10.60;99.90;;;;;;5006795;28;20211;-80
2021/01/20 11:40:30;;;;;;;5.77;2.60;;;10.50;99.90;;;;;;5006490;28;20207;-78
2021/01/20 11:42:57;;;;;;;3.87;2.50;;;10.60;99.90;;;;;;5007242;28;20204;-80
2021/01/20 11:45:25;;;;;;;3.87;2.83;;;10.60;99.90;;;;;;5005962;28;20192;-79
2021/01/20 11:47:52;;;;;;;5.20;3.00;;;10.60;99.90;;;;;;5006648;28;20207;-80
2021/01/20 11:50:19;;;;;;;5.10;2.80;;;10.60;99.90;;;;;;5002389;28;20207;-79
2021/01/20 11:52:45;;;;;;;6.47;3.13;;;10.60;99.90;;;;;;4992672;28;20322;-78
2021/01/20 11:55:13;;;;;;;4.53;2.83;;;10.60;99.90;;;;;;5006217;28;20195;-77
2021/01/20 11:57:39;;;;;;;5.83;2.60;;;10.50;99.90;;;;;;5006479;28;20555;-84
2021/01/20 12:00:07;;;;;;;5.67;2.93;;;10.50;99.90;;;;;;5006041;28;20199;-82
2021/01/20 12:02:33;;;;;;;3.70;2.90;;;10.40;99.90;;;;;;5005785;28;20204;-79
2021/01/20 12:04:59;;;;;;;3.67;2.80;;;10.40;99.90;;;;;;5006083;28;20198;-79
2021/01/20 12:07:26;;;;;;;5.83;3.13;;;10.40;99.90;;;;;;5005639;28;20207;-84
2021/01/20 12:09:52;;;;;;;4.83;3.00;;;10.40;99.90;;;;;;5006725;28;20781;-79
2021/01/20 12:12:19;;;;;;;3.70;2.70;;;10.40;99.90;;;;;;4990510;28;20215;-79
2021/01/20 12:14:46;;;;;;;5.57;2.63;;;10.40;99.90;;;;;;4985227;28;20839;-80
2021/01/20 12:17:12;;;;;;;3.67;2.47;;;10.40;99.90;;;;;;4986611;28;20246;-81
2021/01/20 12:19:38;;;;;;;3.60;2.73;;;10.40;99.90;;;;;;4985722;28;20672;-80
2021/01/20 12:22:04;;;;;;;4.60;2.73;;;10.40;99.90;;;;;;4985413;28;20211;-79
2021/01/20 12:24:33;;;;;;;4.70;2.70;;;10.40;99.90;;;;;;4985499;28;20200;-79
2021/01/20 14:05:05;;;;;;;2.77;1.87;;;10.20;99.90;;;;;;5983782;22;20273;-81
2021/01/20 14:07:32;;;;;;;3.30;2.00;;;10.20;99.90;;;;;;5026157;28;20206;-80
2021/01/20 14:09:58;;;;;;;3.90;2.20;;;10.20;99.90;;;;;;5028551;28;20203;-82
2021/01/20 14:12:24;;;;;;;2.57;2.03;;;10.20;99.90;;;;;;5028652;28;20199;-79
2021/01/20 14:14:50;;;;;;;2.73;1.90;;;10.10;99.90;;;;;;5028137;28;20206;-79
2021/01/20 14:17:17;;;;;;;2.90;2.10;;;10.10;99.90;;;;;;5028753;28;20199;-80
2021/01/20 14:19:44;;;;;;;4.53;1.83;;;10.20;99.90;;;;;;5028466;28;20199;-80
2021/01/20 14:22:11;;;;;;;4.47;3.13;;;10.20;99.90;;;;;;5028990;28;20236;-80
2021/01/20 14:24:37;;;;;;;3.63;2.20;;;10.20;99.90;;;;;;5028259;28;20217;-81
2021/01/20 14:27:04;;;;;;;3.90;3.27;;;10.20;99.90;;;;;;5027387;28;20213;-80
2021/01/20 14:29:30;;;;;;;3.10;2.30;;;10.30;99.90;;;;;;5027163;28;20203;-81
2021/01/20 14:31:56;;;;;;;3.37;1.80;;;10.30;99.90;;;;;;5028411;28;20209;-80
2021/01/20 14:34:23;;;;;;;3.37;2.47;;;10.20;99.90;;;;;;5027492;28;20230;-81
2021/01/20 14:36:51;;;;;;;3.73;2.13;;;10.20;99.90;;;;;;5027087;28;20198;-81
2021/01/20 14:39:18;;;;;;;4.33;2.27;;;10.20;99.90;;;;;;5028308;28;20280;-80
2021/01/20 14:41:45;;;;;;;4.07;2.47;;;10.10;99.90;;;;;;5026709;28;20211;-81
2021/01/20 14:44:11;;;;;;;3.03;2.27;;;10.10;99.90;;;;;;5027165;28;20505;-80
2021/01/20 14:46:38;;;;;;;4.37;3.07;;;10.10;99.90;;;;;;5027102;28;20229;-82
2021/01/20 14:49:04;;;;;;;3.03;2.40;;;10.10;99.90;;;;;;5027018;28;20293;-80